createdAt,value
2019-04-03T00:00:11.204Z,11.1
2019-04-03T00:05:43.850Z,11
2019-04-03T00:11:16.809Z,10.9
2019-04-03T00:16:49.893Z,10.7
2019-04-03T00:22:22.757Z,10.4
2019-04-03T00:27:55.714Z,10.1
2019-04-03T00:33:28.710Z,9.9
2019-04-03T00:39:01.618Z,9.7
2019-04-03T00:44:34.395Z,9.5
2019-04-03T00:50:07.194Z,9.6
2019-04-03T00:55:39.888Z,9.7
2019-04-03T01:01:12.705Z,9.8
2019-04-03T01:06:45.481Z,10
2019-04-03T01:12:18.278Z,9.9
2019-04-03T01:17:51.090Z,9.8
2019-04-03T01:23:23.893Z,9.7
2019-04-03T01:28:56.653Z,9.7
2019-04-03T01:34:29.362Z,9.7
2019-04-03T01:40:02.101Z,9.6
2019-04-03T01:45:34.837Z,9.6
2019-04-03T01:51:07.565Z,9.5
2019-04-03T01:56:40.123Z,9.5
2019-04-03T02:02:12.855Z,9.4
2019-04-03T02:07:45.362Z,9.4
2019-04-03T02:13:18.187Z,9.3
2019-04-03T02:18:50.700Z,9.3
2019-04-03T02:24:23.374Z,9.3
2019-04-03T02:29:55.732Z,9.3
2019-04-03T02:35:28.455Z,9.3
2019-04-03T02:41:03.350Z,9.3
2019-04-03T02:46:33.144Z,9.3
2019-04-03T02:52:05.199Z,9.3
2019-04-03T02:57:37.734Z,9.3
2019-04-03T03:03:09.573Z,9.3
2019-04-03T03:08:42.508Z,9.3
2019-04-03T03:14:13.268Z,9.2
2019-04-03T03:19:45.175Z,9.2
2019-04-03T03:25:17.209Z,9.2
2019-04-03T03:30:57.555Z,9.2
2019-04-03T03:36:24.586Z,9.1
2019-04-03T03:41:55.577Z,9
2019-04-03T03:47:25.814Z,8.9
2019-04-03T03:52:58.395Z,8.9
2019-04-03T03:58:30.419Z,8.8
2019-04-03T04:04:02.674Z,8.8
2019-04-03T04:09:35.205Z,8.9
2019-04-03T04:15:07.822Z,9
2019-04-03T04:20:40.246Z,9.1
2019-04-03T04:26:13.068Z,9.2
2019-04-03T04:31:45.643Z,9.3
2019-04-03T04:37:18.311Z,9.2
2019-04-03T04:42:50.916Z,9.1
2019-04-03T04:48:23.563Z,9
2019-04-03T04:53:56.296Z,8.8
2019-04-03T04:59:29.132Z,8.5
2019-04-03T05:05:02.116Z,8.2
2019-04-03T05:10:34.714Z,8
2019-04-03T05:16:06.532Z,7.9
2019-04-03T05:21:38.904Z,7.7
2019-04-03T05:27:11.450Z,7.4
2019-04-03T05:32:43.956Z,7.3
2019-04-03T05:38:16.706Z,7.3
2019-04-03T05:43:48.916Z,7.2
2019-04-03T05:49:21.169Z,7.2
2019-04-03T05:54:53.061Z,7.2
2019-04-03T06:00:25.379Z,7.3
2019-04-03T06:05:58.503Z,7.2
2019-04-03T06:11:24.631Z,7.2
2019-04-03T06:16:57.197Z,7.2
2019-04-03T06:22:29.273Z,7.3
2019-04-03T06:28:01.297Z,7.3
2019-04-03T06:33:34.893Z,7.3
2019-04-03T06:39:05.496Z,7.3
2019-04-03T06:44:37.183Z,7.4
2019-04-03T06:50:11.796Z,7.4
2019-04-03T06:55:40.990Z,7.5
2019-04-03T07:01:13.082Z,7.7
2019-04-03T07:06:45.590Z,7.8
2019-04-03T07:12:17.382Z,7.9
2019-04-03T07:17:50.274Z,7.8
2019-04-03T07:23:22.749Z,7.8
2019-04-03T07:28:55.249Z,7.8
2019-04-03T07:34:27.855Z,7.8
2019-04-03T07:40:02.316Z,7.7
2019-04-03T07:45:33.564Z,7.8
2019-04-03T07:51:06.285Z,8
2019-04-03T07:56:38.435Z,8.2
2019-04-03T08:02:12.542Z,8.7
2019-04-03T08:07:43.338Z,8.1
2019-04-03T08:13:16.182Z,8.4
2019-04-03T08:18:49.901Z,8.5
2019-04-03T08:24:20.910Z,9.1
2019-04-03T08:29:53.310Z,9.5
2019-04-03T08:35:25.642Z,9.7
2019-04-03T08:40:58.436Z,9.2
2019-04-03T08:46:31.310Z,9.2
2019-04-03T08:52:05.631Z,9.5
2019-04-03T08:57:37.674Z,9.4
2019-04-03T09:03:10.416Z,9
2019-04-03T09:08:43.300Z,9.4
2019-04-03T09:14:15.756Z,10.8
2019-04-03T09:19:48.759Z,10.4
2019-04-03T09:25:22.575Z,10.1
2019-04-03T09:30:55.655Z,9.5
2019-04-03T09:36:28.892Z,9.3
2019-04-03T09:42:02.056Z,9.4
2019-04-03T09:47:27.658Z,9.6
2019-04-03T09:53:02.421Z,9.6
2019-04-03T09:58:35.261Z,9.3
2019-04-03T10:04:07.178Z,9.5
2019-04-03T10:09:42.784Z,9.5
2019-04-03T10:15:13.243Z,9.4
2019-04-03T10:20:48.568Z,9.8
2019-04-03T10:26:19.744Z,9.7
2019-04-03T10:31:54.699Z,10
2019-04-03T10:37:25.698Z,9.8
2019-04-03T10:43:00.463Z,9.8
2019-04-03T10:48:31.716Z,10.2
2019-04-03T10:54:04.689Z,10.4
2019-04-03T10:59:37.493Z,10.5
2019-04-03T11:05:10.797Z,9.3
2019-04-03T11:10:43.741Z,9.1
2019-04-03T11:16:16.825Z,8.7
2019-04-03T11:21:49.820Z,8.7
2019-04-03T11:27:25.374Z,9.1
2019-04-03T11:32:55.994Z,9.2
2019-04-03T11:38:29.781Z,8.9
2019-04-03T11:44:02.350Z,8.4
2019-04-03T11:49:35.513Z,8
2019-04-03T11:55:10.819Z,7.7
2019-04-03T12:00:41.252Z,7.4
2019-04-03T12:06:15.811Z,7.2
2019-04-03T12:11:46.907Z,7
2019-04-03T12:17:19.451Z,6.7
2019-04-03T12:22:54.083Z,6.4
2019-04-03T12:28:24.620Z,6
2019-04-03T12:34:03.274Z,5.4
2019-04-03T12:39:29.736Z,5.1
2019-04-03T12:45:01.935Z,4.9
2019-04-03T12:50:38.950Z,5.1
2019-04-03T12:56:10.848Z,4.9
2019-04-03T13:01:43.192Z,4.5
2019-04-03T13:07:15.447Z,4.2
2019-04-03T13:12:48.122Z,4.2
2019-04-03T13:18:19.900Z,4
2019-04-03T13:23:47.702Z,4.1
2019-04-03T13:29:21.283Z,4.1
2019-04-03T13:34:43.837Z,4.4
2019-04-03T13:40:14.896Z,4.3
2019-04-03T13:45:46.833Z,4.7
2019-04-03T13:51:13.370Z,4.4
2019-04-03T13:56:41.731Z,4.4
2019-04-03T14:02:13.172Z,4.3
2019-04-03T14:07:36.265Z,4.3
2019-04-03T14:13:11.332Z,4.2
2019-04-03T14:18:40.687Z,4.3
2019-04-03T14:24:11.530Z,4.1
2019-04-03T14:29:36.768Z,4.1
2019-04-03T14:35:32.433Z,3.9
2019-04-03T14:40:41.316Z,3.8
2019-04-03T14:46:12.134Z,3.9
2019-04-03T14:51:44.345Z,3.6
2019-04-03T14:57:21.680Z,3.7
2019-04-03T15:02:49.098Z,3.7
2019-04-03T15:08:22.657Z,3.6
2019-04-03T15:13:52.464Z,3.5
2019-04-03T15:19:24.906Z,3.5
2019-04-03T15:24:56.575Z,3.3
2019-04-03T15:30:28.609Z,3.3
2019-04-03T15:36:03.432Z,3.2
2019-04-03T15:41:33.964Z,3.2
2019-04-03T15:46:56.184Z,3.2
2019-04-03T15:52:28.321Z,3.1
2019-04-03T15:58:00.046Z,3
2019-04-03T16:03:31.736Z,2.8
2019-04-03T16:09:03.783Z,2.9
2019-04-03T16:14:35.367Z,2.8
2019-04-03T16:20:07.318Z,2.7
2019-04-03T16:25:32.954Z,2.7
2019-04-03T16:31:04.573Z,2.5
2019-04-03T16:36:30.745Z,2.7
2019-04-03T16:42:02.997Z,2.7
2019-04-03T16:47:33.578Z,2.7
2019-04-03T16:52:58.287Z,2.6
2019-04-03T16:58:29.427Z,2.6
2019-04-03T17:04:02.582Z,2.6
2019-04-03T17:09:26.686Z,2.5
2019-04-03T17:14:58.086Z,2.4
2019-04-03T17:20:29.634Z,2.5
2019-04-03T17:26:00.596Z,2.6
2019-04-03T17:31:24.639Z,2.5
2019-04-03T17:36:55.763Z,2.5
2019-04-03T17:42:26.871Z,2.5
2019-04-03T17:47:58.004Z,2.5
2019-04-03T17:53:29.086Z,2.3
2019-04-03T17:59:00.224Z,2.4
2019-04-03T18:04:23.777Z,2.4
2019-04-03T18:09:54.855Z,2.3
2019-04-03T18:15:27.389Z,2.3
2019-04-03T18:20:58.704Z,2.3
2019-04-03T18:26:21.252Z,2.2
2019-04-03T18:31:52.315Z,2.2
2019-04-03T18:37:24.241Z,2.1
2019-04-03T18:42:56.125Z,1.8
2019-04-03T18:48:28.003Z,1.6
2019-04-03T18:53:59.808Z,1.6
2019-04-03T18:59:31.565Z,1.3
2019-04-03T19:05:02.052Z,1.2
2019-04-03T19:10:31.004Z,1
2019-04-03T19:16:02.807Z,0.8
2019-04-03T19:21:34.611Z,0.7
2019-04-03T19:27:06.197Z,0.8
2019-04-03T19:32:37.098Z,0.6
2019-04-03T19:38:07.938Z,0.4
2019-04-03T19:43:39.041Z,0.3
2019-04-03T19:49:10.858Z,0.2
2019-04-03T19:54:42.509Z,0.1
2019-04-03T20:00:14.234Z,0
2019-04-03T20:05:46.010Z,0
2019-04-03T20:11:16.941Z,0
2019-04-03T20:16:47.878Z,0
2019-04-03T20:22:18.665Z,0
2019-04-03T20:27:52.074Z,0
2019-04-03T20:33:20.406Z,0
2019-04-03T20:38:51.271Z,0
2019-04-03T20:44:22.173Z,0
2019-04-03T20:49:53.092Z,0
2019-04-03T20:55:25.394Z,0
2019-04-03T21:01:05.899Z,-0.1
2019-04-03T21:06:27.350Z,-0.1
2019-04-03T21:11:58.336Z,-0.1
2019-04-03T21:17:29.266Z,-0.1
2019-04-03T21:23:02.788Z,-0.1
2019-04-03T21:28:30.989Z,-0.1
2019-04-03T21:34:02.379Z,-0.1
2019-04-03T21:39:33.843Z,-0.1
2019-04-03T21:45:07.059Z,-0.1
2019-04-03T21:50:34.422Z,-0.1
2019-04-03T21:56:05.222Z,-0.1
2019-04-03T22:01:36.036Z,-0.1
2019-04-03T22:07:06.930Z,-0.1
2019-04-03T22:12:37.772Z,-0.1
2019-04-03T22:18:08.563Z,-0.1
2019-04-03T22:23:39.473Z,-0.1
2019-04-03T22:29:10.297Z,-0.1
2019-04-03T22:34:43.319Z,-0.1
2019-04-03T22:40:11.985Z,-0.1
2019-04-03T22:45:42.786Z,-0.1
2019-04-03T22:51:13.661Z,-0.1
2019-04-03T22:56:45.879Z,-0.1
2019-04-03T23:02:15.312Z,0
2019-04-03T23:07:46.188Z,-0.1
2019-04-03T23:13:16.970Z,-0.1
2019-04-03T23:18:47.898Z,-0.1
2019-04-03T23:24:18.678Z,0
2019-04-03T23:29:49.601Z,0
2019-04-03T23:35:21.127Z,0
2019-04-03T23:40:51.285Z,0
2019-04-03T23:46:22.125Z,0
2019-04-03T23:51:52.946Z,0
2019-04-03T23:57:23.813Z,0
